PAYA/YAK METAR and TAF weather

Enter ICAO airport designator
Station Type Date Time Source
PAYA METAR 2022/06/24 19:53 UTC NOAA

PAYA 241953Z AUTO 27007KT 10SM OVC021 14/10 A3039 RMK AO2 SLP289 T01390100 TSNO


Station Type Date Time Source
PAYA Decoded METAR 2022/06/24 19:53 UTC NOAA

YAKUTAT AIRPORT, AK, United States (PAYA) 59-30N 139-40W 9M
Jun 24, 2022 - 03:53 PM EDT / 2022.06.24 1953 UTC
Wind: from the W (270 degrees) at 8 MPH (7 KT):0
Visibility: 10 mile(s):0
Sky conditions: overcast
Temperature: 57.0 F (13.9 C)
Dew Point: 50.0 F (10.0 C)
Relative Humidity: 77%
Pressure (altimeter): 30.39 in. Hg (1029 hPa)
ob: PAYA 241953Z AUTO 27007KT 10SM OVC021 14/10 A3039 RMK AO2 SLP289 T01390100 TSNO
cycle: 20

Station Type Date Time Source
PAYA TAF 2022/06/25 18:22 UTC NOAA

TAF PAYA 251720Z 2518/2618 30005KT P6SM SKC
FM261000 VRB05KT P6SM SCT015
AMD NOT SKED

Example: see airport list